Gryphon — WDD9532 — position and weather

sailwx.info

Track history (hours):
 
Tides and Currents Weather Stations Pressure Air Temp Water Temp Dewpoint Dewpoint Depression Visibility Wind Speed Wind Dir Waves Ship Positions

Gryphon

More information available from US FCC via Universal Licensing System and Coast Guard Vessel Documentation Center.

Last reported at 2014-Aug-20 22:33 UTC. Time now 2014-Aug-22 17:44 UTC.
Position N 47°39' W 122°26'.

Length 14 m.

Type: Pleasure craft. MMSI: 367312780.

Date/timePositionNaut miles runAvg speedWind from/ knotsBaromVisibWave heightAir tempDewpointWater temp
2014-Aug-20 22:33N 47°39' W 122°26'7 7.2
2014-Aug-20 21:33N 47°46' W 122°27'8 7.7
2014-Aug-20 20:33N 47°53' W 122°30'38 7.6
2014-Aug-20 15:32N 48°31' W 122°39'2 0.1
2014-Aug-19 21:06N 48°31' W 122°36'1 1.3
2014-Aug-19 20:33N 48°31' W 122°37'9 6.1
2014-Aug-19 19:03N 48°39' W 122°44'4 7.8
2014-Aug-19 18:31N 48°42' W 122°49'15 7.5
2014-Aug-19 16:31N 48°46' W 123°11'  
Track history (hours):
 
Tides and Currents Weather Stations Pressure Air Temp Water Temp Dewpoint Dewpoint Depression Visibility Wind Speed Wind Dir Waves Ship Positions

Gryphon

More information available from US FCC via Universal Licensing System and Coast Guard Vessel Documentation Center.

Last reported at 2014-Aug-20 22:33 UTC. Time now 2014-Aug-22 17:44 UTC.
Position N 47°39' W 122°26'.

Length 14 m.

Type: Pleasure craft. MMSI: 367312780.

Date/timePositionNaut miles runAvg speedWind from/ knotsBaromVisibWave heightAir tempDewpointWater temp
2014-Aug-20 22:33N 47°39' W 122°26'7 7.2
2014-Aug-20 21:33N 47°46' W 122°27'8 7.7
2014-Aug-20 20:33N 47°53' W 122°30'38 7.6
2014-Aug-20 15:32N 48°31' W 122°39'2 0.1
2014-Aug-19 21:06N 48°31' W 122°36'1 1.3
2014-Aug-19 20:33N 48°31' W 122°37'9 6.1
2014-Aug-19 19:03N 48°39' W 122°44'4 7.8
2014-Aug-19 18:31N 48°42' W 122°49'15 7.5
2014-Aug-19 16:31N 48°46' W 123°11'  

Dump ship's entire track history